Airfield :
LOGIN :

Register | Disclaimer

   EN    FR    IT 

 










Legend :    VFR   Marginal VFR   IFR   Intensive IFR   Very Intensive IFR
Visi :
Ceiling :
>= 8 km
>= 3000ft
5 to 8 km
1000 to 3000 ft
1500m to 5 km
500 to 1000 ft
800 to 1500m
200 to 500 ft
< 800m
< 200 ft
Symbols :   Thunderstorms  Fog  Heavy snow  Heavy precipitations  Wind > 20 kt
SIGMETs :     Misc.  Thunderstorms  Icing  Turbulence  Mountain Waves  Volcanic Ashes






- Airport Elevation : 465 ft
- IATA code : LEJ


EDDP - Leipzig Halle

CURRENT METAR :
  • 201020Z 10010KT 060V120 CAVOK 22/07 Q1018 NOSIG

EXPIRED METARs :
  • 200950Z 07009KT 030V120 CAVOK 21/07 Q1018 NOSIG
  • 200920Z 09008KT 050V120 CAVOK 20/07 Q1019 NOSIG
  • 200850Z 10008KT 070V130 CAVOK 18/07 Q1019 NOSIG
  • 200820Z 09004KT 050V150 CAVOK 17/07 Q1019 NOSIG
  • 200750Z 10004KT 070V140 CAVOK 15/07 Q1019 NOSIG

TAF TAF EDDP
Valid from the 20 at 06:00 until the 21 at 06:00 UTC


200500Z 2006/2106 06006KT CAVOK



MET'MAP, your aeronautical weather chart ! - Copyright ORBIFLY December 2007 - Disclaimer

ORBIFLY MET'MAP TEAM :

Programming & Development : Alexandra Zaïnal
Concept & original design : Baudouin d'Aumeries
Assistance for programming : Marc-Olivier Méhu
Technical & hardware support : Manuel Goepfert

Contact : metmap@orbifly.com




SOURCES & CREDITS :

   NOAA